sensor_id;sensor_type;location;lat;lon;timestamp;temperature;humidity
49503;DHT22;35409;48.776;9.204;2023-08-08T07:45:05;19.30;99.90
49503;DHT22;35409;48.776;9.204;2023-08-08T07:47:31;19.40;99.90
49503;DHT22;35409;48.776;9.204;2023-08-08T07:49:57;19.50;99.90
49503;DHT22;35409;48.776;9.204;2023-08-08T07:52:22;19.70;99.90
49503;DHT22;35409;48.776;9.204;2023-08-08T07:57:18;20.20;99.90
49503;DHT22;35409;48.776;9.204;2023-08-08T07:59:44;20.20;99.90
49503;DHT22;35409;48.776;9.204;2023-08-08T08:02:10;20.20;99.90
49503;DHT22;35409;48.776;9.204;2023-08-08T08:04:36;20.40;99.90
49503;DHT22;35409;48.776;9.204;2023-08-08T08:07:01;20.40;99.90
49503;DHT22;35409;48.776;9.204;2023-08-08T08:09:28;20.50;99.90
49503;DHT22;35409;48.776;9.204;2023-08-08T08:11:53;20.50;99.90
49503;DHT22;35409;48.776;9.204;2023-08-08T08:14:19;20.60;99.60
49503;DHT22;35409;48.776;9.204;2023-08-08T08:16:46;20.70;99.70
49503;DHT22;35409;48.776;9.204;2023-08-08T08:19:11;20.80;99.50
49503;DHT22;35409;48.776;9.204;2023-08-08T08:21:37;20.90;98.80
49503;DHT22;35409;48.776;9.204;2023-08-08T08:24:03;21.00;98.20
49503;DHT22;35409;48.776;9.204;2023-08-08T08:26:29;20.90;98.10
49503;DHT22;35409;48.776;9.204;2023-08-08T08:28:54;20.90;98.10
49503;DHT22;35409;48.776;9.204;2023-08-08T08:31:20;20.90;98.20
49503;DHT22;35409;48.776;9.204;2023-08-08T08:33:47;20.90;98.40
49503;DHT22;35409;48.776;9.204;2023-08-08T08:36:13;21.00;98.20
49503;DHT22;35409;48.776;9.204;2023-08-08T08:38:38;21.00;98.00
49503;DHT22;35409;48.776;9.204;2023-08-08T08:41:04;20.90;98.40
49503;DHT22;35409;48.776;9.204;2023-08-08T08:43:30;20.90;98.50
49503;DHT22;35409;48.776;9.204;2023-08-08T08:46:00;20.80;98.80
49503;DHT22;35409;48.776;9.204;2023-08-08T08:48:28;20.90;98.60
49503;DHT22;35409;48.776;9.204;2023-08-08T08:50:53;21.00;98.40
49503;DHT22;35409;48.776;9.204;2023-08-08T08:53:20;21.10;98.40
49503;DHT22;35409;48.776;9.204;2023-08-08T08:55:48;21.20;98.40
49503;DHT22;35409;48.776;9.204;2023-08-08T08:58:15;21.20;98.50
49503;DHT22;35409;48.776;9.204;2023-08-08T09:00:44;21.20;98.10
49503;DHT22;35409;48.776;9.204;2023-08-08T09:03:12;21.10;98.40
49503;DHT22;35409;48.776;9.204;2023-08-08T09:05:39;21.20;98.60
49503;DHT22;35409;48.776;9.204;2023-08-08T09:42:29;22.50;94.60
49503;DHT22;35409;48.776;9.204;2023-08-08T09:44:58;22.50;94.90
49503;DHT22;35409;48.776;9.204;2023-08-08T09:47:24;22.60;94.30
49503;DHT22;35409;48.776;9.204;2023-08-08T09:49:50;22.70;93.90
49503;DHT22;35409;48.776;9.204;2023-08-08T09:52:17;22.60;93.90
49503;DHT22;35409;48.776;9.204;2023-08-08T09:54:42;22.70;93.70
49503;DHT22;35409;48.776;9.204;2023-08-08T09:57:09;22.80;93.70
49503;DHT22;35409;48.776;9.204;2023-08-08T09:59:35;22.90;93.70
49503;DHT22;35409;48.776;9.204;2023-08-08T10:44:25;24.30;85.40
49503;DHT22;35409;48.776;9.204;2023-08-08T10:46:51;24.40;84.00
49503;DHT22;35409;48.776;9.204;2023-08-08T10:49:18;24.40;83.80
49503;DHT22;35409;48.776;9.204;2023-08-08T10:51:45;24.20;81.50
49503;DHT22;35409;48.776;9.204;2023-08-08T10:54:25;23.90;82.30
49503;DHT22;35409;48.776;9.204;2023-08-08T10:56:59;23.80;80.40
49503;DHT22;35409;48.776;9.204;2023-08-08T10:59:27;23.60;80.70
49503;DHT22;35409;48.776;9.204;2023-08-08T11:02:01;23.50;79.50
49503;DHT22;35409;48.776;9.204;2023-08-08T11:04:27;23.60;80.50
49503;DHT22;35409;48.776;9.204;2023-08-08T11:06:54;23.80;79.70
49503;DHT22;35409;48.776;9.204;2023-08-08T11:09:20;24.10;79.90
49503;DHT22;35409;48.776;9.204;2023-08-08T11:11:46;24.00;78.50
49503;DHT22;35409;48.776;9.204;2023-08-08T11:14:14;23.70;79.60
49503;DHT22;35409;48.776;9.204;2023-08-08T11:16:40;23.40;79.30
49503;DHT22;35409;48.776;9.204;2023-08-08T11:19:06;23.20;80.30
49503;DHT22;35409;48.776;9.204;2023-08-08T11:21:36;23.40;81.20
49503;DHT22;35409;48.776;9.204;2023-08-08T11:24:04;23.70;79.20
49503;DHT22;35409;48.776;9.204;2023-08-08T11:26:30;23.60;78.80
49503;DHT22;35409;48.776;9.204;2023-08-08T11:29:01;23.50;78.90
49503;DHT22;35409;48.776;9.204;2023-08-08T11:31:27;23.40;80.40
49503;DHT22;35409;48.776;9.204;2023-08-08T11:33:54;23.50;80.50
49503;DHT22;35409;48.776;9.204;2023-08-08T11:36:21;23.90;81.30
49503;DHT22;35409;48.776;9.204;2023-08-08T11:38:48;24.40;78.30
49503;DHT22;35409;48.776;9.204;2023-08-08T11:41:16;24.50;77.60
49503;DHT22;35409;48.776;9.204;2023-08-08T11:43:43;24.50;76.90
49503;DHT22;35409;48.776;9.204;2023-08-08T11:46:09;24.80;74.60
49503;DHT22;35409;48.776;9.204;2023-08-08T11:48:37;25.20;74.00
49503;DHT22;35409;48.776;9.204;2023-08-08T11:51:07;25.40;74.70
49503;DHT22;35409;48.776;9.204;2023-08-08T11:53:33;25.20;74.90
49503;DHT22;35409;48.776;9.204;2023-08-08T11:55:59;25.00;75.10
49503;DHT22;35409;48.776;9.204;2023-08-08T11:58:26;24.70;75.80
49503;DHT22;35409;48.776;9.204;2023-08-08T12:00:52;24.40;76.80
49503;DHT22;35409;48.776;9.204;2023-08-08T12:03:19;24.30;77.00
49503;DHT22;35409;48.776;9.204;2023-08-08T12:05:47;24.70;75.50
49503;DHT22;35409;48.776;9.204;2023-08-08T12:08:18;25.10;74.80
49503;DHT22;35409;48.776;9.204;2023-08-08T12:10:49;25.50;74.00
49503;DHT22;35409;48.776;9.204;2023-08-08T12:13:20;25.90;72.60
49503;DHT22;35409;48.776;9.204;2023-08-08T12:15:46;26.30;90.20
49503;DHT22;35409;48.776;9.204;2023-08-08T12:18:16;26.10;91.80
49503;DHT22;35409;48.776;9.204;2023-08-08T12:20:43;25.90;93.00
49503;DHT22;35409;48.776;9.204;2023-08-08T12:23:08;26.00;93.90
49503;DHT22;35409;48.776;9.204;2023-08-08T18:14:20;20.60;86.80
49503;DHT22;35409;48.776;9.204;2023-08-08T18:16:46;20.50;87.60
49503;DHT22;35409;48.776;9.204;2023-08-08T18:19:11;20.50;88.10
49503;DHT22;35409;48.776;9.204;2023-08-08T18:21:37;20.40;88.40
49503;DHT22;35409;48.776;9.204;2023-08-08T18:24:03;20.40;88.30
49503;DHT22;35409;48.776;9.204;2023-08-08T18:26:29;20.30;88.70
49503;DHT22;35409;48.776;9.204;2023-08-08T18:28:54;20.30;89.10
49503;DHT22;35409;48.776;9.204;2023-08-08T18:31:20;20.30;89.20
49503;DHT22;35409;48.776;9.204;2023-08-08T18:33:46;20.20;89.40
49503;DHT22;35409;48.776;9.204;2023-08-08T18:36:11;20.10;89.80
49503;DHT22;35409;48.776;9.204;2023-08-08T18:38:37;20.00;90.00
49503;DHT22;35409;48.776;9.204;2023-08-08T18:41:03;20.00;90.20
49503;DHT22;35409;48.776;9.204;2023-08-08T18:43:29;19.90;90.40
49503;DHT22;35409;48.776;9.204;2023-08-08T18:45:55;19.90;90.50
49503;DHT22;35409;48.776;9.204;2023-08-08T18:48:21;19.80;90.60
49503;DHT22;35409;48.776;9.204;2023-08-08T18:50:48;19.70;90.80
49503;DHT22;35409;48.776;9.204;2023-08-08T18:53:14;19.70;91.00
49503;DHT22;35409;48.776;9.204;2023-08-08T18:55:40;19.60;91.10
49503;DHT22;35409;48.776;9.204;2023-08-08T18:58:06;19.60;91.20
49503;DHT22;35409;48.776;9.204;2023-08-08T19:00:34;19.50;91.40
49503;DHT22;35409;48.776;9.204;2023-08-08T19:03:00;19.40;91.70
49503;DHT22;35409;48.776;9.204;2023-08-08T19:05:26;19.40;91.90
49503;DHT22;35409;48.776;9.204;2023-08-08T19:07:51;19.30;92.10
49503;DHT22;35409;48.776;9.204;2023-08-08T19:10:17;19.30;92.20
49503;DHT22;35409;48.776;9.204;2023-08-08T19:12:43;19.30;92.40
49503;DHT22;35409;48.776;9.204;2023-08-08T19:15:09;19.20;92.60
49503;DHT22;35409;48.776;9.204;2023-08-08T19:17:36;19.20;92.70
49503;DHT22;35409;48.776;9.204;2023-08-08T19:20:01;19.20;97.20
49503;DHT22;35409;48.776;9.204;2023-08-08T19:22:27;19.20;98.70
49503;DHT22;35409;48.776;9.204;2023-08-08T19:24:53;19.10;99.90
49503;DHT22;35409;48.776;9.204;2023-08-08T19:27:19;19.10;99.90
49503;DHT22;35409;48.776;9.204;2023-08-08T19:29:45;19.10;99.90
49503;DHT22;35409;48.776;9.204;2023-08-08T19:32:10;19.00;99.90
49503;DHT22;35409;48.776;9.204;2023-08-08T19:34:36;19.00;99.90
49503;DHT22;35409;48.776;9.204;2023-08-08T19:37:02;19.00;96.90
49503;DHT22;35409;48.776;9.204;2023-08-08T19:39:28;18.80;94.00
49503;DHT22;35409;48.776;9.204;2023-08-08T19:41:53;18.80;94.20
49503;DHT22;35409;48.776;9.204;2023-08-08T19:44:19;18.80;94.40
49503;DHT22;35409;48.776;9.204;2023-08-08T19:46:45;18.80;94.50
49503;DHT22;35409;48.776;9.204;2023-08-08T19:49:10;18.70;94.70
49503;DHT22;35409;48.776;9.204;2023-08-08T19:51:36;18.70;94.90
49503;DHT22;35409;48.776;9.204;2023-08-08T19:54:02;18.70;95.10
49503;DHT22;35409;48.776;9.204;2023-08-08T19:56:28;18.80;96.30
49503;DHT22;35409;48.776;9.204;2023-08-08T19:58:53;18.60;95.50
49503;DHT22;35409;48.776;9.204;2023-08-08T20:01:19;18.60;95.60
49503;DHT22;35409;48.776;9.204;2023-08-08T20:03:46;18.60;95.70
49503;DHT22;35409;48.776;9.204;2023-08-08T20:06:11;18.60;95.90
49503;DHT22;35409;48.776;9.204;2023-08-08T20:08:37;18.50;96.00
49503;DHT22;35409;48.776;9.204;2023-08-08T20:11:02;18.50;96.10
49503;DHT22;35409;48.776;9.204;2023-08-08T20:13:31;18.50;96.20
49503;DHT22;35409;48.776;9.204;2023-08-08T20:15:57;18.50;96.40
49503;DHT22;35409;48.776;9.204;2023-08-08T20:18:22;18.40;96.50
49503;DHT22;35409;48.776;9.204;2023-08-08T20:20:48;18.40;96.80
49503;DHT22;35409;48.776;9.204;2023-08-08T20:23:14;18.40;96.80
49503;DHT22;35409;48.776;9.204;2023-08-08T20:25:39;18.40;97.00
49503;DHT22;35409;48.776;9.204;2023-08-08T20:28:05;18.40;97.10
49503;DHT22;35409;48.776;9.204;2023-08-08T20:30:35;18.40;97.20
49503;DHT22;35409;48.776;9.204;2023-08-08T20:33:01;18.40;97.40
49503;DHT22;35409;48.776;9.204;2023-08-08T20:35:28;18.40;97.50
49503;DHT22;35409;48.776;9.204;2023-08-08T20:37:53;18.30;97.60
49503;DHT22;35409;48.776;9.204;2023-08-08T20:40:19;18.30;97.70
49503;DHT22;35409;48.776;9.204;2023-08-08T20:42:45;18.30;97.90
49503;DHT22;35409;48.776;9.204;2023-08-08T20:45:11;18.20;98.00
49503;DHT22;35409;48.776;9.204;2023-08-08T20:47:37;18.20;98.10
49503;DHT22;35409;48.776;9.204;2023-08-08T20:50:04;18.20;98.10
49503;DHT22;35409;48.776;9.204;2023-08-08T20:52:31;18.20;98.20
49503;DHT22;35409;48.776;9.204;2023-08-08T20:57:23;18.20;98.30
49503;DHT22;35409;48.776;9.204;2023-08-08T20:59:49;18.10;98.40
49503;DHT22;35409;48.776;9.204;2023-08-08T21:02:15;18.10;98.50
49503;DHT22;35409;48.776;9.204;2023-08-08T21:04:40;18.10;98.60
49503;DHT22;35409;48.776;9.204;2023-08-08T21:07:06;18.10;98.90
49503;DHT22;35409;48.776;9.204;2023-08-08T21:09:40;18.10;99.90
49503;DHT22;35409;48.776;9.204;2023-08-08T21:12:06;18.00;99.90
49503;DHT22;35409;48.776;9.204;2023-08-08T21:14:32;18.00;99.90
49503;DHT22;35409;48.776;9.204;2023-08-08T21:16:58;17.90;99.90
49503;DHT22;35409;48.776;9.204;2023-08-08T21:19:26;17.90;99.90
49503;DHT22;35409;48.776;9.204;2023-08-08T21:21:52;17.90;99.90
49503;DHT22;35409;48.776;9.204;2023-08-08T21:24:19;17.80;99.90
49503;DHT22;35409;48.776;9.204;2023-08-08T21:26:45;17.70;99.90
49503;DHT22;35409;48.776;9.204;2023-08-08T21:29:10;17.70;99.90
49503;DHT22;35409;48.776;9.204;2023-08-08T21:31:36;17.70;99.90
49503;DHT22;35409;48.776;9.204;2023-08-08T21:34:02;17.60;99.90
49503;DHT22;35409;48.776;9.204;2023-08-08T21:36:28;17.60;99.90
49503;DHT22;35409;48.776;9.204;2023-08-08T21:38:54;17.50;99.90
49503;DHT22;35409;48.776;9.204;2023-08-08T21:41:20;17.60;99.90
49503;DHT22;35409;48.776;9.204;2023-08-08T21:43:45;17.50;99.90
49503;DHT22;35409;48.776;9.204;2023-08-08T21:46:11;17.50;99.90
49503;DHT22;35409;48.776;9.204;2023-08-08T21:48:37;17.50;99.90
49503;DHT22;35409;48.776;9.204;2023-08-08T21:51:02;17.50;99.90
49503;DHT22;35409;48.776;9.204;2023-08-08T21:53:28;17.50;99.90
49503;DHT22;35409;48.776;9.204;2023-08-08T21:55:55;17.50;99.90
49503;DHT22;35409;48.776;9.204;2023-08-08T21:58:20;17.50;99.90
49503;DHT22;35409;48.776;9.204;2023-08-08T22:00:46;17.60;99.90
49503;DHT22;35409;48.776;9.204;2023-08-08T22:03:12;17.60;99.90
49503;DHT22;35409;48.776;9.204;2023-08-08T22:05:37;17.60;99.90
49503;DHT22;35409;48.776;9.204;2023-08-08T22:08:03;17.70;99.90
49503;DHT22;35409;48.776;9.204;2023-08-08T22:10:29;17.70;99.90
49503;DHT22;35409;48.776;9.204;2023-08-08T22:13:02;17.70;99.90
49503;DHT22;35409;48.776;9.204;2023-08-08T22:15:29;17.70;99.90
49503;DHT22;35409;48.776;9.204;2023-08-08T22:17:58;17.80;99.90
49503;DHT22;35409;48.776;9.204;2023-08-08T22:20:29;17.80;99.90
49503;DHT22;35409;48.776;9.204;2023-08-08T22:22:54;17.80;99.90
49503;DHT22;35409;48.776;9.204;2023-08-08T22:25:20;17.80;99.90
49503;DHT22;35409;48.776;9.204;2023-08-08T22:27:46;17.80;99.90
49503;DHT22;35409;48.776;9.204;2023-08-08T22:30:11;17.80;99.90
49503;DHT22;35409;48.776;9.204;2023-08-08T22:32:37;17.70;99.90
49503;DHT22;35409;48.776;9.204;2023-08-08T22:35:03;17.80;99.90
49503;DHT22;35409;48.776;9.204;2023-08-08T22:37:29;17.70;99.90
49503;DHT22;35409;48.776;9.204;2023-08-08T22:39:54;17.80;99.90
49503;DHT22;35409;48.776;9.204;2023-08-08T22:42:20;17.70;99.90
49503;DHT22;35409;48.776;9.204;2023-08-08T22:44:46;17.70;99.90
49503;DHT22;35409;48.776;9.204;2023-08-08T22:47:11;17.70;99.90
49503;DHT22;35409;48.776;9.204;2023-08-08T22:49:37;17.70;99.90
49503;DHT22;35409;48.776;9.204;2023-08-08T22:52:02;17.70;99.90
49503;DHT22;35409;48.776;9.204;2023-08-08T22:54:28;17.60;99.90
49503;DHT22;35409;48.776;9.204;2023-08-08T22:56:54;17.60;99.90
49503;DHT22;35409;48.776;9.204;2023-08-08T22:59:19;17.60;99.90
49503;DHT22;35409;48.776;9.204;2023-08-08T23:01:45;17.60;99.90
49503;DHT22;35409;48.776;9.204;2023-08-08T23:04:11;17.60;99.90
49503;DHT22;35409;48.776;9.204;2023-08-08T23:06:36;17.60;99.90
49503;DHT22;35409;48.776;9.204;2023-08-08T23:09:02;17.60;99.90
49503;DHT22;35409;48.776;9.204;2023-08-08T23:11:28;17.60;99.90
49503;DHT22;35409;48.776;9.204;2023-08-08T23:13:53;17.60;99.90
49503;DHT22;35409;48.776;9.204;2023-08-08T23:16:19;17.60;99.90
49503;DHT22;35409;48.776;9.204;2023-08-08T23:18:44;17.60;99.90
49503;DHT22;35409;48.776;9.204;2023-08-08T23:21:10;17.60;99.90
49503;DHT22;35409;48.776;9.204;2023-08-08T23:23:36;17.60;99.90
49503;DHT22;35409;48.776;9.204;2023-08-08T23:26:01;17.60;99.90
49503;DHT22;35409;48.776;9.204;2023-08-08T23:28:27;17.60;99.90
49503;DHT22;35409;48.776;9.204;2023-08-08T23:30:52;17.60;99.90
49503;DHT22;35409;48.776;9.204;2023-08-08T23:33:18;17.60;99.90
49503;DHT22;35409;48.776;9.204;2023-08-08T23:35:44;17.60;99.90
49503;DHT22;35409;48.776;9.204;2023-08-08T23:38:09;17.50;99.90
49503;DHT22;35409;48.776;9.204;2023-08-08T23:40:35;17.50;99.90
49503;DHT22;35409;48.776;9.204;2023-08-08T23:43:01;17.60;99.90
49503;DHT22;35409;48.776;9.204;2023-08-08T23:45:26;17.60;99.90
49503;DHT22;35409;48.776;9.204;2023-08-08T23:47:52;17.50;99.90
49503;DHT22;35409;48.776;9.204;2023-08-08T23:50:17;17.50;99.90
49503;DHT22;35409;48.776;9.204;2023-08-08T23:52:43;17.50;99.90
49503;DHT22;35409;48.776;9.204;2023-08-08T23:55:09;17.50;99.90
49503;DHT22;35409;48.776;9.204;2023-08-08T23:57:35;17.50;99.90
